sensor_id;sensor_type;location;lat;lon;timestamp;pressure;altitude;pressure_sealevel;temperature;humidity
75513;BME280;64090;49.770;18.760;2022-11-15T00:01:59;97958.59;;;0.74;93.73
75513;BME280;64090;49.770;18.760;2022-11-15T00:04:27;97962.70;;;0.80;93.73
75513;BME280;64090;49.770;18.760;2022-11-15T00:06:54;97963.02;;;0.86;93.49
75513;BME280;64090;49.770;18.760;2022-11-15T00:09:22;97962.42;;;0.93;93.74
75513;BME280;64090;49.770;18.760;2022-11-15T00:11:51;97959.27;;;1.01;93.96
75513;BME280;64090;49.770;18.760;2022-11-15T00:14:19;97964.77;;;1.07;94.19
75513;BME280;64090;49.770;18.760;2022-11-15T00:16:46;97963.55;;;1.09;93.82
75513;BME280;64090;49.770;18.760;2022-11-15T00:19:14;97965.98;;;1.17;93.68
75513;BME280;64090;49.770;18.760;2022-11-15T00:21:42;97970.36;;;1.21;93.50
75513;BME280;64090;49.770;18.760;2022-11-15T00:24:25;97972.54;;;1.28;93.36
75513;BME280;64090;49.770;18.760;2022-11-15T00:26:52;97968.25;;;1.33;93.09
75513;BME280;64090;49.770;18.760;2022-11-15T00:29:20;97969.86;;;1.40;93.34
75513;BME280;64090;49.770;18.760;2022-11-15T00:32:05;97964.88;;;1.47;92.86
75513;BME280;64090;49.770;18.760;2022-11-15T00:34:33;97968.59;;;1.46;92.79
75513;BME280;64090;49.770;18.760;2022-11-15T00:37:01;97967.02;;;1.42;92.58
75513;BME280;64090;49.770;18.760;2022-11-15T00:39:29;97963.31;;;1.41;92.60
75513;BME280;64090;49.770;18.760;2022-11-15T00:41:57;97961.65;;;1.40;92.33
75513;BME280;64090;49.770;18.760;2022-11-15T00:44:25;97960.25;;;1.38;92.34
75513;BME280;64090;49.770;18.760;2022-11-15T00:46:53;97958.98;;;1.35;92.34
75513;BME280;64090;49.770;18.760;2022-11-15T00:49:20;97959.73;;;1.32;92.21
75513;BME280;64090;49.770;18.760;2022-11-15T00:51:48;97951.86;;;1.30;92.43
75513;BME280;64090;49.770;18.760;2022-11-15T00:54:16;97948.26;;;1.28;92.26
75513;BME280;64090;49.770;18.760;2022-11-15T00:56:44;97944.30;;;1.21;92.35
75513;BME280;64090;49.770;18.760;2022-11-15T00:59:11;97940.13;;;1.16;92.22
75513;BME280;64090;49.770;18.760;2022-11-15T01:01:39;97936.05;;;1.08;91.98
75513;BME280;64090;49.770;18.760;2022-11-15T01:04:07;97936.54;;;1.03;92.00
75513;BME280;64090;49.770;18.760;2022-11-15T01:06:35;97936.33;;;1.02;91.89
75513;BME280;64090;49.770;18.760;2022-11-15T01:09:03;97933.34;;;0.96;91.60
75513;BME280;64090;49.770;18.760;2022-11-15T01:11:31;97928.05;;;0.91;91.64
75513;BME280;64090;49.770;18.760;2022-11-15T01:13:58;97929.80;;;0.89;91.70
75513;BME280;64090;49.770;18.760;2022-11-15T01:16:26;97923.80;;;0.88;91.51
75513;BME280;64090;49.770;18.760;2022-11-15T01:18:54;97922.20;;;0.84;91.35
75513;BME280;64090;49.770;18.760;2022-11-15T01:21:22;97916.12;;;0.78;91.43
75513;BME280;64090;49.770;18.760;2022-11-15T01:23:53;97916.15;;;0.72;91.37
75513;BME280;64090;49.770;18.760;2022-11-15T01:26:23;97919.38;;;0.69;91.10
75513;BME280;64090;49.770;18.760;2022-11-15T01:28:51;97910.70;;;0.65;91.35
75513;BME280;64090;49.770;18.760;2022-11-15T01:31:20;97910.60;;;0.60;91.26
75513;BME280;64090;49.770;18.760;2022-11-15T01:33:48;97903.85;;;0.58;91.04
75513;BME280;64090;49.770;18.760;2022-11-15T01:36:20;97904.31;;;0.53;91.05
75513;BME280;64090;49.770;18.760;2022-11-15T01:38:55;97898.97;;;0.50;91.12
75513;BME280;64090;49.770;18.760;2022-11-15T01:41:26;97896.20;;;0.48;90.97
75513;BME280;64090;49.770;18.760;2022-11-15T01:43:56;97892.29;;;0.43;90.82
75513;BME280;64090;49.770;18.760;2022-11-15T01:46:30;97893.33;;;0.39;90.80
75513;BME280;64090;49.770;18.760;2022-11-15T01:49:03;97884.77;;;0.37;90.71
75513;BME280;64090;49.770;18.760;2022-11-15T01:51:33;97873.48;;;0.33;90.27
75513;BME280;64090;49.770;18.760;2022-11-15T01:54:08;97876.38;;;0.28;90.27
75513;BME280;64090;49.770;18.760;2022-11-15T01:56:44;97875.60;;;0.25;89.99
75513;BME280;64090;49.770;18.760;2022-11-15T01:59:14;97871.23;;;0.21;90.31
75513;BME280;64090;49.770;18.760;2022-11-15T02:01:42;97867.84;;;0.18;90.34
75513;BME280;64090;49.770;18.760;2022-11-15T02:04:16;97861.65;;;0.13;90.12
75513;BME280;64090;49.770;18.760;2022-11-15T02:06:46;97856.86;;;0.12;90.19
75513;BME280;64090;49.770;18.760;2022-11-15T02:09:16;97852.28;;;0.12;89.97
75513;BME280;64090;49.770;18.760;2022-11-15T02:11:46;97846.34;;;0.11;89.91
75513;BME280;64090;49.770;18.760;2022-11-15T02:14:15;97842.91;;;0.07;89.78
75513;BME280;64090;49.770;18.760;2022-11-15T02:30:49;97827.73;;;0.07;89.88
75513;BME280;64090;49.770;18.760;2022-11-15T02:33:31;97829.05;;;0.11;90.22
75513;BME280;64090;49.770;18.760;2022-11-15T02:36:06;97822.64;;;0.11;90.07
75513;BME280;64090;49.770;18.760;2022-11-15T02:38:41;97824.39;;;0.11;89.81
75513;BME280;64090;49.770;18.760;2022-11-15T02:41:26;97823.38;;;0.11;89.75
75513;BME280;64090;49.770;18.760;2022-11-15T02:44:07;97816.69;;;0.07;89.55
75513;BME280;64090;49.770;18.760;2022-11-15T02:46:45;97819.33;;;0.07;89.83
75513;BME280;64090;49.770;18.760;2022-11-15T02:49:33;97809.06;;;0.05;89.71
75513;BME280;64090;49.770;18.760;2022-11-15T02:52:02;97805.44;;;0.07;89.82
75513;BME280;64090;49.770;18.760;2022-11-15T02:54:32;97803.23;;;0.08;89.87
75513;BME280;64090;49.770;18.760;2022-11-15T02:57:15;97798.98;;;0.09;90.15
75513;BME280;64090;49.770;18.760;2022-11-15T03:00:00;97795.62;;;0.15;90.41
75513;BME280;64090;49.770;18.760;2022-11-15T03:02:42;97795.84;;;0.22;90.25
75513;BME280;64090;49.770;18.760;2022-11-15T03:05:35;97796.30;;;0.31;90.25
75513;BME280;64090;49.770;18.760;2022-11-15T03:11:09;97799.86;;;0.41;90.18
75513;BME280;64090;49.770;18.760;2022-11-15T03:16:20;97790.20;;;0.42;90.25
75513;BME280;64090;49.770;18.760;2022-11-15T03:18:58;97789.14;;;0.46;91.04
75513;BME280;64090;49.770;18.760;2022-11-15T03:21:28;97783.05;;;0.65;93.92
75513;BME280;64090;49.770;18.760;2022-11-15T03:24:00;97780.44;;;0.84;92.70
75513;BME280;64090;49.770;18.760;2022-11-15T03:26:33;97773.23;;;1.00;91.83
75513;BME280;64090;49.770;18.760;2022-11-15T03:29:12;97770.83;;;1.14;91.56
75513;BME280;64090;49.770;18.760;2022-11-15T03:31:46;97767.86;;;1.23;91.73
75513;BME280;64090;49.770;18.760;2022-11-15T03:34:28;97762.43;;;1.33;91.90
75513;BME280;64090;49.770;18.760;2022-11-15T03:36:57;97757.18;;;1.40;91.49
75513;BME280;64090;49.770;18.760;2022-11-15T03:39:25;97753.11;;;1.48;91.27
75513;BME280;64090;49.770;18.760;2022-11-15T03:42:06;97748.52;;;1.52;91.41
75513;BME280;64090;49.770;18.760;2022-11-15T03:44:47;97742.48;;;1.59;91.23
75513;BME280;64090;49.770;18.760;2022-11-15T03:47:33;97738.68;;;1.67;91.03
75513;BME280;64090;49.770;18.760;2022-11-15T03:50:07;97742.85;;;1.74;91.57
75513;BME280;64090;49.770;18.760;2022-11-15T03:52:36;97740.38;;;1.82;91.34
75513;BME280;64090;49.770;18.760;2022-11-15T03:55:07;97734.55;;;1.90;91.16
75513;BME280;64090;49.770;18.760;2022-11-15T03:57:36;97726.41;;;2.00;91.07
75513;BME280;64090;49.770;18.760;2022-11-15T04:00:04;97720.36;;;2.09;91.10
75513;BME280;64090;49.770;18.760;2022-11-15T04:02:32;97714.84;;;2.19;91.10
75513;BME280;64090;49.770;18.760;2022-11-15T04:05:00;97715.77;;;2.31;91.26
75513;BME280;64090;49.770;18.760;2022-11-15T04:07:28;97713.49;;;2.43;91.42
75513;BME280;64090;49.770;18.760;2022-11-15T04:09:56;97709.27;;;2.59;91.68
75513;BME280;64090;49.770;18.760;2022-11-15T04:12:31;97711.11;;;2.75;91.87
75513;BME280;64090;49.770;18.760;2022-11-15T04:15:15;97705.05;;;2.90;91.72
75513;BME280;64090;49.770;18.760;2022-11-15T04:17:48;97705.95;;;3.00;91.50
75513;BME280;64090;49.770;18.760;2022-11-15T04:20:19;97696.41;;;3.03;91.23
75513;BME280;64090;49.770;18.760;2022-11-15T04:23:09;97696.15;;;3.11;91.18
75513;BME280;64090;49.770;18.760;2022-11-15T04:25:59;97689.33;;;3.26;91.36
75513;BME280;64090;49.770;18.760;2022-11-15T04:28:28;97688.60;;;3.48;91.51
75513;BME280;64090;49.770;18.760;2022-11-15T04:30:56;97688.59;;;3.71;91.52
75513;BME280;64090;49.770;18.760;2022-11-15T04:33:24;97689.48;;;3.94;91.39
75513;BME280;64090;49.770;18.760;2022-11-15T04:35:52;97687.61;;;4.11;91.33
75513;BME280;64090;49.770;18.760;2022-11-15T04:38:38;97683.85;;;4.28;91.24
75513;BME280;64090;49.770;18.760;2022-11-15T04:41:06;97683.04;;;4.41;90.97
75513;BME280;64090;49.770;18.760;2022-11-15T04:43:34;97679.66;;;4.52;90.88
75513;BME280;64090;49.770;18.760;2022-11-15T04:46:02;97678.52;;;4.63;90.69
75513;BME280;64090;49.770;18.760;2022-11-15T04:48:30;97675.50;;;4.69;90.62
75513;BME280;64090;49.770;18.760;2022-11-15T04:50:58;97679.04;;;4.75;90.57
75513;BME280;64090;49.770;18.760;2022-11-15T04:53:26;97677.15;;;4.80;90.49
75513;BME280;64090;49.770;18.760;2022-11-15T04:55:53;97675.47;;;4.81;90.17
75513;BME280;64090;49.770;18.760;2022-11-15T04:58:21;97672.05;;;4.75;89.73
75513;BME280;64090;49.770;18.760;2022-11-15T05:00:49;97670.52;;;4.68;89.31
75513;BME280;64090;49.770;18.760;2022-11-15T05:03:17;97669.52;;;4.60;89.17
75513;BME280;64090;49.770;18.760;2022-11-15T05:06:04;97671.39;;;4.41;88.50
75513;BME280;64090;49.770;18.760;2022-11-15T05:08:32;97668.80;;;4.12;87.83
75513;BME280;64090;49.770;18.760;2022-11-15T05:11:00;97667.69;;;3.75;86.86
75513;BME280;64090;49.770;18.760;2022-11-15T05:13:28;97665.85;;;3.39;86.04
75513;BME280;64090;49.770;18.760;2022-11-15T05:15:57;97662.61;;;3.05;85.80
75513;BME280;64090;49.770;18.760;2022-11-15T05:18:25;97664.45;;;2.75;86.44
75513;BME280;64090;49.770;18.760;2022-11-15T05:20:52;97660.35;;;2.48;86.94
75513;BME280;64090;49.770;18.760;2022-11-15T05:23:20;97662.10;;;2.24;87.74
75513;BME280;64090;49.770;18.760;2022-11-15T05:25:48;97664.84;;;2.04;88.71
75513;BME280;64090;49.770;18.760;2022-11-15T05:28:16;97662.45;;;1.93;89.32
75513;BME280;64090;49.770;18.760;2022-11-15T05:30:43;97652.27;;;2.00;90.46
75513;BME280;64090;49.770;18.760;2022-11-15T05:33:11;97659.61;;;2.10;90.46
75513;BME280;64090;49.770;18.760;2022-11-15T05:35:41;97653.83;;;2.20;90.38
75513;BME280;64090;49.770;18.760;2022-11-15T05:38:09;97657.12;;;2.35;90.77
75513;BME280;64090;49.770;18.760;2022-11-15T05:40:37;97655.05;;;2.52;90.76
75513;BME280;64090;49.770;18.760;2022-11-15T05:43:05;97650.88;;;2.61;90.42
75513;BME280;64090;49.770;18.760;2022-11-15T05:45:34;97647.08;;;2.62;90.14
75513;BME280;64090;49.770;18.760;2022-11-15T05:48:06;97644.02;;;2.65;89.97
75513;BME280;64090;49.770;18.760;2022-11-15T05:50:38;97648.42;;;2.62;89.25
75513;BME280;64090;49.770;18.760;2022-11-15T05:53:12;97647.78;;;2.43;88.66
75513;BME280;64090;49.770;18.760;2022-11-15T05:55:42;97648.33;;;2.31;88.80
75513;BME280;64090;49.770;18.760;2022-11-15T05:58:10;97658.96;;;2.21;88.60
75513;BME280;64090;49.770;18.760;2022-11-15T06:00:37;97659.70;;;2.13;88.82
75513;BME280;64090;49.770;18.760;2022-11-15T06:03:06;97659.36;;;2.06;88.94
75513;BME280;64090;49.770;18.760;2022-11-15T06:05:34;97663.13;;;1.93;88.00
75513;BME280;64090;49.770;18.760;2022-11-15T06:08:01;97661.46;;;1.69;88.82
75513;BME280;64090;49.770;18.760;2022-11-15T06:10:29;97666.06;;;1.66;90.15
75513;BME280;64090;49.770;18.760;2022-11-15T06:13:02;97664.25;;;1.65;90.09
75513;BME280;64090;49.770;18.760;2022-11-15T06:15:32;97659.62;;;1.61;89.87
75513;BME280;64090;49.770;18.760;2022-11-15T06:18:00;97660.19;;;1.59;89.82
75513;BME280;64090;49.770;18.760;2022-11-15T06:20:29;97656.00;;;1.59;89.61
75513;BME280;64090;49.770;18.760;2022-11-15T06:23:03;97661.85;;;1.56;88.84
75513;BME280;64090;49.770;18.760;2022-11-15T06:25:31;97660.67;;;1.54;88.92
75513;BME280;64090;49.770;18.760;2022-11-15T06:27:59;97664.09;;;1.51;88.67
75513;BME280;64090;49.770;18.760;2022-11-15T06:30:27;97665.08;;;1.55;89.02
75513;BME280;64090;49.770;18.760;2022-11-15T06:32:59;97664.07;;;1.64;89.08
75513;BME280;64090;49.770;18.760;2022-11-15T06:35:29;97665.41;;;1.70;88.97
75513;BME280;64090;49.770;18.760;2022-11-15T06:38:05;97662.50;;;1.71;88.79
75513;BME280;64090;49.770;18.760;2022-11-15T06:40:34;97670.10;;;1.72;88.68
75513;BME280;64090;49.770;18.760;2022-11-15T06:43:03;97668.00;;;1.79;88.84
75513;BME280;64090;49.770;18.760;2022-11-15T06:45:32;97665.47;;;1.87;88.62
75513;BME280;64090;49.770;18.760;2022-11-15T06:48:00;97663.08;;;2.00;88.87
75513;BME280;64090;49.770;18.760;2022-11-15T06:50:28;97671.52;;;2.12;88.79
75513;BME280;64090;49.770;18.760;2022-11-15T06:53:00;97672.40;;;2.21;88.57
75513;BME280;64090;49.770;18.760;2022-11-15T06:55:29;97668.50;;;2.30;88.58
75513;BME280;64090;49.770;18.760;2022-11-15T06:57:57;97674.80;;;2.44;88.55
75513;BME280;64090;49.770;18.760;2022-11-15T07:00:25;97670.35;;;2.57;88.28
75513;BME280;64090;49.770;18.760;2022-11-15T07:02:53;97676.02;;;2.71;88.29
75513;BME280;64090;49.770;18.760;2022-11-15T07:05:21;97672.92;;;2.86;88.07
75513;BME280;64090;49.770;18.760;2022-11-15T07:07:53;97667.86;;;2.95;88.14
75513;BME280;64090;49.770;18.760;2022-11-15T07:10:22;97671.34;;;3.08;88.37
75513;BME280;64090;49.770;18.760;2022-11-15T07:12:52;97673.08;;;3.25;88.47
75513;BME280;64090;49.770;18.760;2022-11-15T07:15:22;97670.81;;;3.38;88.36
75513;BME280;64090;49.770;18.760;2022-11-15T07:17:51;97670.66;;;3.52;88.32
75513;BME280;64090;49.770;18.760;2022-11-15T07:20:18;97671.46;;;3.62;88.10
75513;BME280;64090;49.770;18.760;2022-11-15T07:22:46;97666.83;;;3.74;87.96
75513;BME280;64090;49.770;18.760;2022-11-15T07:25:14;97671.38;;;3.88;87.86
75513;BME280;64090;49.770;18.760;2022-11-15T07:27:42;97670.30;;;4.00;87.72
75513;BME280;64090;49.770;18.760;2022-11-15T07:30:11;97672.82;;;4.10;87.35
75513;BME280;64090;49.770;18.760;2022-11-15T07:32:42;97669.16;;;4.18;87.14
75513;BME280;64090;49.770;18.760;2022-11-15T07:35:09;97671.75;;;4.28;87.20
75513;BME280;64090;49.770;18.760;2022-11-15T07:37:37;97669.60;;;4.35;87.12
75513;BME280;64090;49.770;18.760;2022-11-15T07:40:05;97674.19;;;4.45;87.01
75513;BME280;64090;49.770;18.760;2022-11-15T07:42:33;97672.21;;;4.54;87.02
75513;BME280;64090;49.770;18.760;2022-11-15T07:45:23;97662.21;;;4.64;86.69
75513;BME280;64090;49.770;18.760;2022-11-15T07:47:54;97663.21;;;4.71;86.53
75513;BME280;64090;49.770;18.760;2022-11-15T07:50:24;97657.10;;;4.80;86.57
75513;BME280;64090;49.770;18.760;2022-11-15T07:52:56;97652.70;;;4.94;86.75
75513;BME280;64090;49.770;18.760;2022-11-15T07:55:26;97652.44;;;5.08;86.60
75513;BME280;64090;49.770;18.760;2022-11-15T07:58:03;97649.13;;;5.15;86.19
75513;BME280;64090;49.770;18.760;2022-11-15T08:00:31;97646.54;;;5.27;85.95
75513;BME280;64090;49.770;18.760;2022-11-15T08:03:10;97648.45;;;5.46;86.13
75513;BME280;64090;49.770;18.760;2022-11-15T08:05:40;97650.20;;;5.63;85.42
75513;BME280;64090;49.770;18.760;2022-11-15T08:08:11;97650.92;;;5.75;85.06
75513;BME280;64090;49.770;18.760;2022-11-15T08:10:39;97650.59;;;5.81;84.64
75513;BME280;64090;49.770;18.760;2022-11-15T08:13:10;97650.73;;;5.88;84.30
75513;BME280;64090;49.770;18.760;2022-11-15T08:15:39;97654.09;;;5.84;84.29
75513;BME280;64090;49.770;18.760;2022-11-15T08:18:11;97650.98;;;5.81;84.58
75513;BME280;64090;49.770;18.760;2022-11-15T08:20:40;97659.83;;;5.79;84.65
75513;BME280;64090;49.770;18.760;2022-11-15T08:23:10;97663.42;;;5.78;84.67
75513;BME280;64090;49.770;18.760;2022-11-15T08:25:38;97661.42;;;5.82;85.26
75513;BME280;64090;49.770;18.760;2022-11-15T08:28:07;97651.46;;;5.91;85.52
75513;BME280;64090;49.770;18.760;2022-11-15T08:30:39;97651.73;;;6.00;85.33
75513;BME280;64090;49.770;18.760;2022-11-15T08:33:13;97649.80;;;6.10;84.93
75513;BME280;64090;49.770;18.760;2022-11-15T08:35:42;97648.69;;;6.13;84.92
75513;BME280;64090;49.770;18.760;2022-11-15T08:38:11;97648.50;;;6.19;85.05
75513;BME280;64090;49.770;18.760;2022-11-15T08:40:39;97642.60;;;6.26;84.80
75513;BME280;64090;49.770;18.760;2022-11-15T08:43:06;97642.45;;;6.35;84.75
75513;BME280;64090;49.770;18.760;2022-11-15T08:45:35;97633.13;;;6.42;84.96
75513;BME280;64090;49.770;18.760;2022-11-15T08:48:03;97630.86;;;6.51;84.58
75513;BME280;64090;49.770;18.760;2022-11-15T08:50:31;97633.84;;;6.61;83.95
75513;BME280;64090;49.770;18.760;2022-11-15T08:53:07;97632.02;;;6.71;83.97
75513;BME280;64090;49.770;18.760;2022-11-15T08:55:37;97637.45;;;6.86;83.77
75513;BME280;64090;49.770;18.760;2022-11-15T08:58:05;97631.66;;;7.00;83.49
75513;BME280;64090;49.770;18.760;2022-11-15T09:00:33;97624.36;;;7.13;82.95
75513;BME280;64090;49.770;18.760;2022-11-15T09:03:04;97621.20;;;7.26;83.11
75513;BME280;64090;49.770;18.760;2022-11-15T09:05:32;97623.34;;;7.39;82.05
75513;BME280;64090;49.770;18.760;2022-11-15T09:08:03;97619.10;;;7.47;81.98
75513;BME280;64090;49.770;18.760;2022-11-15T09:10:51;97624.48;;;7.63;82.53
75513;BME280;64090;49.770;18.760;2022-11-15T09:13:19;97626.14;;;7.70;81.96
75513;BME280;64090;49.770;18.760;2022-11-15T09:15:47;97627.24;;;7.76;81.77
75513;BME280;64090;49.770;18.760;2022-11-15T09:18:15;97625.99;;;7.83;82.27
75513;BME280;64090;49.770;18.760;2022-11-15T09:20:42;97624.42;;;7.94;82.06
75513;BME280;64090;49.770;18.760;2022-11-15T09:23:10;97628.35;;;8.07;82.02
75513;BME280;64090;49.770;18.760;2022-11-15T09:25:38;97629.33;;;8.21;81.60
75513;BME280;64090;49.770;18.760;2022-11-15T09:28:07;97628.54;;;8.33;80.38
75513;BME280;64090;49.770;18.760;2022-11-15T09:30:35;97627.74;;;8.35;79.96
75513;BME280;64090;49.770;18.760;2022-11-15T09:33:10;97623.97;;;8.30;80.32
75513;BME280;64090;49.770;18.760;2022-11-15T09:35:39;97616.61;;;8.27;81.01
75513;BME280;64090;49.770;18.760;2022-11-15T09:38:08;97607.02;;;8.33;80.26
75513;BME280;64090;49.770;18.760;2022-11-15T09:40:37;97599.14;;;8.44;80.45
75513;BME280;64090;49.770;18.760;2022-11-15T09:49:15;97589.34;;;8.91;80.38
75513;BME280;64090;49.770;18.760;2022-11-15T09:51:46;97581.23;;;9.02;79.87
75513;BME280;64090;49.770;18.760;2022-11-15T09:54:32;97576.90;;;9.11;78.87
75513;BME280;64090;49.770;18.760;2022-11-15T10:00:25;97569.95;;;9.44;80.41
75513;BME280;64090;49.770;18.760;2022-11-15T10:03:16;97567.19;;;9.74;79.75
75513;BME280;64090;49.770;18.760;2022-11-15T10:05:47;97564.70;;;10.00;79.16
75513;BME280;64090;49.770;18.760;2022-11-15T10:10:47;97560.86;;;10.25;77.64
75513;BME280;64090;49.770;18.760;2022-11-15T10:13:23;97562.45;;;10.39;77.57
75513;BME280;64090;49.770;18.760;2022-11-15T10:15:55;97555.23;;;10.44;77.88
75513;BME280;64090;49.770;18.760;2022-11-15T10:18:57;97555.07;;;10.48;77.18
75513;BME280;64090;49.770;18.760;2022-11-15T10:24:39;97540.70;;;10.64;78.07
75513;BME280;64090;49.770;18.760;2022-11-15T10:27:16;97536.91;;;10.69;77.91
75513;BME280;64090;49.770;18.760;2022-11-15T10:29:46;97537.27;;;10.73;76.73
75513;BME280;64090;49.770;18.760;2022-11-15T10:32:15;97537.88;;;10.67;76.62
75513;BME280;64090;49.770;18.760;2022-11-15T10:34:43;97536.00;;;10.65;75.63
75513;BME280;64090;49.770;18.760;2022-11-15T10:37:11;97536.76;;;10.58;75.66
75513;BME280;64090;49.770;18.760;2022-11-15T10:39:39;97531.05;;;10.51;74.96
75513;BME280;64090;49.770;18.760;2022-11-15T10:42:28;97528.95;;;10.46;74.97
75513;BME280;64090;49.770;18.760;2022-11-15T10:44:56;97524.77;;;10.51;74.60
75513;BME280;64090;49.770;18.760;2022-11-15T10:47:31;97517.71;;;10.56;74.68
75513;BME280;64090;49.770;18.760;2022-11-15T10:50:32;97518.16;;;10.62;74.24
75513;BME280;64090;49.770;18.760;2022-11-15T10:53:01;97509.61;;;10.66;74.59
75513;BME280;64090;49.770;18.760;2022-11-15T10:55:31;97504.11;;;10.72;75.47
75513;BME280;64090;49.770;18.760;2022-11-15T10:58:09;97505.21;;;10.88;75.45
75513;BME280;64090;49.770;18.760;2022-11-15T11:00:47;97503.66;;;10.94;75.26
75513;BME280;64090;49.770;18.760;2022-11-15T11:03:28;97504.42;;;11.06;74.98
75513;BME280;64090;49.770;18.760;2022-11-15T11:06:15;97503.40;;;11.11;75.30
75513;BME280;64090;49.770;18.760;2022-11-15T11:11:51;97506.48;;;11.28;76.15
75513;BME280;64090;49.770;18.760;2022-11-15T11:14:24;97500.45;;;11.42;75.25
75513;BME280;64090;49.770;18.760;2022-11-15T11:22:19;97494.11;;;11.72;73.83
75513;BME280;64090;49.770;18.760;2022-11-15T11:25:28;97490.73;;;11.78;73.34
75513;BME280;64090;49.770;18.760;2022-11-15T11:31:05;97480.66;;;11.86;73.19
75513;BME280;64090;49.770;18.760;2022-11-15T11:33:58;97484.61;;;11.88;72.90
75513;BME280;64090;49.770;18.760;2022-11-15T11:42:33;97472.32;;;11.74;72.16
75513;BME280;64090;49.770;18.760;2022-11-15T11:53:45;97452.64;;;11.77;73.69
75513;BME280;64090;49.770;18.760;2022-11-15T11:58:52;97440.15;;;11.81;74.03
75513;BME280;64090;49.770;18.760;2022-11-15T12:01:36;97437.27;;;11.86;73.59
75513;BME280;64090;49.770;18.760;2022-11-15T12:04:50;97430.29;;;11.90;73.97
75513;BME280;64090;49.770;18.760;2022-11-15T12:07:19;97423.02;;;11.99;74.43
75513;BME280;64090;49.770;18.760;2022-11-15T12:12:47;97411.14;;;12.20;73.95
75513;BME280;64090;49.770;18.760;2022-11-15T12:15:20;97410.27;;;12.28;74.08
75513;BME280;64090;49.770;18.760;2022-11-15T12:17:50;97408.57;;;12.38;73.70
75513;BME280;64090;49.770;18.760;2022-11-15T12:20:20;97401.55;;;12.45;73.23
75513;BME280;64090;49.770;18.760;2022-11-15T12:25:24;97398.77;;;12.48;71.62
75513;BME280;64090;49.770;18.760;2022-11-15T12:28:01;97399.48;;;12.41;72.04
75513;BME280;64090;49.770;18.760;2022-11-15T12:33:38;97395.61;;;12.34;72.45
75513;BME280;64090;49.770;18.760;2022-11-15T12:39:04;97387.60;;;12.17;71.81
75513;BME280;64090;49.770;18.760;2022-11-15T12:41:37;97385.54;;;12.11;71.67
75513;BME280;64090;49.770;18.760;2022-11-15T12:59:54;97373.49;;;11.43;72.89
75513;BME280;64090;49.770;18.760;2022-11-15T13:02:38;97369.35;;;11.35;73.12
75513;BME280;64090;49.770;18.760;2022-11-15T13:17:40;97356.58;;;11.22;73.95
75513;BME280;64090;49.770;18.760;2022-11-15T13:22:47;97358.06;;;11.20;74.46
75513;BME280;64090;49.770;18.760;2022-11-15T13:30:54;97354.42;;;11.29;74.17
75513;BME280;64090;49.770;18.760;2022-11-15T13:36:23;97349.02;;;11.33;73.47
75513;BME280;64090;49.770;18.760;2022-11-15T13:39:29;97355.16;;;11.30;73.47
75513;BME280;64090;49.770;18.760;2022-11-15T13:41:58;97354.98;;;11.24;74.02
75513;BME280;64090;49.770;18.760;2022-11-15T13:44:28;97355.66;;;11.20;74.25
75513;BME280;64090;49.770;18.760;2022-11-15T13:47:13;97353.98;;;11.14;73.90
75513;BME280;64090;49.770;18.760;2022-11-15T13:49:42;97350.23;;;11.11;73.52
75513;BME280;64090;49.770;18.760;2022-11-15T13:52:13;97348.81;;;11.07;73.37
75513;BME280;64090;49.770;18.760;2022-11-15T13:54:43;97347.20;;;11.01;73.52
75513;BME280;64090;49.770;18.760;2022-11-15T13:57:39;97345.61;;;10.93;74.09
75513;BME280;64090;49.770;18.760;2022-11-15T14:02:55;97343.11;;;10.78;74.47
75513;BME280;64090;49.770;18.760;2022-11-15T14:05:24;97338.45;;;10.69;74.56
75513;BME280;64090;49.770;18.760;2022-11-15T14:08:12;97335.35;;;10.62;74.57
75513;BME280;64090;49.770;18.760;2022-11-15T14:10:48;97329.80;;;10.53;74.69
75513;BME280;64090;49.770;18.760;2022-11-15T14:13:33;97330.67;;;10.43;74.80
75513;BME280;64090;49.770;18.760;2022-11-15T14:16:20;97323.70;;;10.35;75.04
75513;BME280;64090;49.770;18.760;2022-11-15T14:18:51;97315.64;;;10.24;75.54
75513;BME280;64090;49.770;18.760;2022-11-15T14:21:20;97315.19;;;10.15;75.99
75513;BME280;64090;49.770;18.760;2022-11-15T14:23:48;97311.32;;;10.06;75.90
75513;BME280;64090;49.770;18.760;2022-11-15T14:28:55;97310.75;;;9.89;75.85
75513;BME280;64090;49.770;18.760;2022-11-15T14:31:23;97311.65;;;9.80;75.81
75513;BME280;64090;49.770;18.760;2022-11-15T14:33:51;97311.98;;;9.71;75.86
75513;BME280;64090;49.770;18.760;2022-11-15T14:36:20;97311.35;;;9.62;76.16
75513;BME280;64090;49.770;18.760;2022-11-15T14:38:48;97307.38;;;9.52;76.57
75513;BME280;64090;49.770;18.760;2022-11-15T14:41:22;97307.81;;;9.44;76.87
75513;BME280;64090;49.770;18.760;2022-11-15T14:43:51;97302.82;;;9.35;77.29
75513;BME280;64090;49.770;18.760;2022-11-15T14:46:19;97304.83;;;9.28;77.61
75513;BME280;64090;49.770;18.760;2022-11-15T14:48:47;97300.84;;;9.20;77.86
75513;BME280;64090;49.770;18.760;2022-11-15T14:51:18;97297.52;;;9.12;78.14
75513;BME280;64090;49.770;18.760;2022-11-15T14:53:46;97296.06;;;9.08;78.41
75513;BME280;64090;49.770;18.760;2022-11-15T14:56:15;97295.77;;;9.05;78.64
